createdAt,value
2022-09-13T00:01:19.939Z,2.60
2022-09-13T00:03:48.766Z,2.47
2022-09-13T00:06:21.285Z,3.73
2022-09-13T00:08:50.704Z,2.40
2022-09-13T00:11:23.862Z,2.30
2022-09-13T00:13:53.209Z,2.97
2022-09-13T00:16:25.463Z,2.77
2022-09-13T00:18:55.969Z,4.73
2022-09-13T00:21:25.626Z,3.03
2022-09-13T00:23:55.604Z,2.67
2022-09-13T00:26:29.034Z,3.90
2022-09-13T00:28:59.792Z,2.60
2022-09-13T00:31:30.223Z,3.57
2022-09-13T00:34:00.849Z,4.57
2022-09-13T00:36:30.146Z,2.67
2022-09-13T00:39:00.511Z,2.63
2022-09-13T00:41:30.782Z,4.13
2022-09-13T00:44:02.584Z,3.20
2022-09-13T00:46:40.452Z,4.43
2022-09-13T00:49:16.745Z,3.37
2022-09-13T00:51:53.777Z,3.63
2022-09-13T00:54:29.082Z,3.63
2022-09-13T00:57:03.795Z,5.93
2022-09-13T00:59:40.061Z,4.20
2022-09-13T01:02:09.123Z,2.90
2022-09-13T01:04:39.295Z,3.57
2022-09-13T01:07:12.359Z,3.00
2022-09-13T01:09:46.729Z,3.07
2022-09-13T01:12:33.265Z,4.40
2022-09-13T01:15:05.656Z,4.23
2022-09-13T01:17:36.997Z,5.17
2022-09-13T01:20:08.738Z,4.70
2022-09-13T01:23:40.624Z,3.17
2022-09-13T01:26:44.810Z,3.87
2022-09-13T01:29:43.866Z,3.63
2022-09-13T01:32:26.620Z,3.70
2022-09-13T01:35:11.075Z,4.13
2022-09-13T01:37:54.648Z,3.50
2022-09-13T01:40:50.509Z,3.60
2022-09-13T01:43:38.054Z,4.20
2022-09-13T01:46:13.563Z,6.13
2022-09-13T01:48:57.593Z,3.77
2022-09-13T01:51:34.363Z,3.10
2022-09-13T01:54:19.529Z,3.90
2022-09-13T01:56:59.154Z,4.97
2022-09-13T01:59:42.406Z,3.40
2022-09-13T02:02:20.539Z,4.87
2022-09-13T02:04:59.721Z,4.63
2022-09-13T02:07:36.771Z,3.40
2022-09-13T02:10:12.867Z,4.03
2022-09-13T02:12:46.537Z,3.80
2022-09-13T02:15:21.196Z,3.43
2022-09-13T02:18:00.740Z,4.70
2022-09-13T02:20:36.828Z,3.77
2022-09-13T02:23:15.161Z,5.40
2022-09-13T02:25:47.487Z,4.07
2022-09-13T02:28:24.015Z,4.57
2022-09-13T02:30:59.048Z,3.53
2022-09-13T02:33:34.923Z,3.90
2022-09-13T02:36:11.060Z,3.50
2022-09-13T02:38:49.143Z,4.07
2022-09-13T02:41:27.505Z,3.97
2022-09-13T02:44:06.135Z,4.23
2022-09-13T02:46:59.008Z,5.30
2022-09-13T02:49:41.197Z,4.57
2022-09-13T02:52:23.300Z,5.20
2022-09-13T02:55:00.545Z,4.57
2022-09-13T02:57:38.884Z,4.33
2022-09-13T03:00:09.877Z,5.47
2022-09-13T03:02:42.487Z,4.10
2022-09-13T03:05:10.912Z,4.77
2022-09-13T03:07:41.002Z,5.13
2022-09-13T03:10:15.670Z,4.27
2022-09-13T03:13:22.739Z,6.63
2022-09-13T03:16:07.899Z,5.57
2022-09-13T03:18:54.629Z,4.90
2022-09-13T03:21:54.509Z,5.07
2022-09-13T03:24:33.554Z,6.80
2022-09-13T03:27:27.538Z,7.70
2022-09-13T03:30:03.935Z,7.40
2022-09-13T03:32:45.973Z,5.97
2022-09-13T03:35:26.945Z,7.13
2022-09-13T03:38:04.631Z,7.10
2022-09-13T03:40:45.661Z,6.13
2022-09-13T03:43:19.262Z,8.10
2022-09-13T03:45:53.294Z,6.17
2022-09-13T03:48:24.340Z,7.07
2022-09-13T03:50:52.813Z,6.93
2022-09-13T03:53:26.969Z,5.27
2022-09-13T03:55:56.620Z,4.83
2022-09-13T03:58:28.610Z,5.63
2022-09-13T04:00:57.546Z,5.83
2022-09-13T04:03:25.808Z,6.47
2022-09-13T04:05:54.433Z,5.47
2022-09-13T04:08:23.516Z,6.77
2022-09-13T04:10:52.462Z,4.97
2022-09-13T04:13:23.837Z,6.67
2022-09-13T04:15:52.211Z,5.17
2022-09-13T04:18:21.255Z,5.20
2022-09-13T04:20:56.111Z,5.53
2022-09-13T04:23:24.959Z,6.00
2022-09-13T04:25:54.340Z,5.97
2022-09-13T04:28:24.466Z,5.53
2022-09-13T04:30:52.700Z,5.20
2022-09-13T04:33:20.905Z,5.97
2022-09-13T04:35:50.231Z,5.60
2022-09-13T04:38:18.979Z,6.70
2022-09-13T04:40:54.589Z,6.27
2022-09-13T04:43:25.495Z,5.30
2022-09-13T04:45:53.893Z,6.83
2022-09-13T04:48:22.161Z,6.17
2022-09-13T04:50:50.423Z,5.40
2022-09-13T04:53:19.216Z,6.40
2022-09-13T04:55:48.101Z,5.63
2022-09-13T04:58:16.778Z,6.97
2022-09-13T05:00:46.377Z,5.50
2022-09-13T05:03:15.230Z,8.33
2022-09-13T05:05:44.029Z,6.57
2022-09-13T05:08:12.555Z,8.43
2022-09-13T05:10:40.853Z,6.50
2022-09-13T05:13:09.569Z,6.03
2022-09-13T05:15:38.333Z,7.03
2022-09-13T05:18:08.377Z,6.20
2022-09-13T05:20:36.706Z,6.77
2022-09-13T05:23:05.187Z,6.70
2022-09-13T05:25:33.418Z,5.83
2022-09-13T05:28:01.752Z,5.57
2022-09-13T05:30:30.630Z,5.63
2022-09-13T05:32:59.337Z,6.30
2022-09-13T05:35:28.956Z,6.30
2022-09-13T05:37:57.390Z,5.47
2022-09-13T05:40:25.816Z,6.53
2022-09-13T05:42:54.787Z,7.63
2022-09-13T05:45:23.863Z,6.27
2022-09-13T05:47:52.695Z,5.83
2022-09-13T05:50:52.752Z,6.50
2022-09-13T05:53:10.804Z,5.63
2022-09-13T05:55:39.522Z,6.03
2022-09-13T05:58:08.792Z,7.47
2022-09-13T06:00:37.146Z,5.60
2022-09-13T06:03:05.814Z,7.67
2022-09-13T06:05:34.021Z,5.43
2022-09-13T06:08:02.537Z,5.63
2022-09-13T06:10:32.201Z,6.07
2022-09-13T06:13:00.821Z,6.13
2022-09-13T06:15:29.051Z,6.47
2022-09-13T06:17:57.461Z,5.90
2022-09-13T06:20:26.619Z,5.57
2022-09-13T06:22:54.822Z,5.03
2022-09-13T06:25:23.076Z,5.87
2022-09-13T06:27:52.668Z,5.47
2022-09-13T06:30:20.900Z,5.27
2022-09-13T06:32:49.975Z,5.20
2022-09-13T06:35:18.636Z,4.80
2022-09-13T06:37:47.107Z,4.83
2022-09-13T06:40:17.591Z,6.60
2022-09-13T06:42:47.593Z,6.17
2022-09-13T06:45:18.150Z,5.17
2022-09-13T06:47:46.905Z,5.53
2022-09-13T06:50:15.694Z,13.80
2022-09-13T06:52:43.941Z,6.73
2022-09-13T06:55:12.956Z,7.20
2022-09-13T06:57:41.230Z,4.23
2022-09-13T07:00:11.777Z,4.37
2022-09-13T07:02:41.824Z,5.90
2022-09-13T07:05:10.912Z,5.53
2022-09-13T07:07:39.752Z,4.47
2022-09-13T07:10:09.836Z,6.00
2022-09-13T07:12:38.247Z,4.83
2022-09-13T07:15:08.226Z,4.13
2022-09-13T07:17:36.467Z,4.60
2022-09-13T07:20:08.593Z,4.37
2022-09-13T07:22:36.920Z,5.30
2022-09-13T07:25:05.871Z,4.13
2022-09-13T07:27:34.147Z,4.20
2022-09-13T07:30:03.036Z,4.10
2022-09-13T07:32:33.461Z,4.30
2022-09-13T07:35:02.481Z,4.40
2022-09-13T07:37:32.044Z,4.50
2022-09-13T07:40:00.375Z,4.43
2022-09-13T07:42:29.553Z,5.00
2022-09-13T07:44:58.159Z,4.23
2022-09-13T07:47:26.698Z,4.23
2022-09-13T07:49:55.469Z,3.93
2022-09-13T07:52:23.694Z,3.63
2022-09-13T07:54:56.660Z,4.73
2022-09-13T07:57:25.837Z,3.67
2022-09-13T07:59:55.264Z,5.17
2022-09-13T08:02:23.615Z,3.77
2022-09-13T08:04:51.894Z,6.20
2022-09-13T08:07:20.271Z,4.30
2022-09-13T08:09:49.040Z,4.03
2022-09-13T08:12:19.180Z,3.90
2022-09-13T08:14:47.410Z,4.50
2022-09-13T08:17:16.322Z,3.80
2022-09-13T08:19:44.539Z,4.60
2022-09-13T08:22:12.762Z,3.40
2022-09-13T08:24:41.893Z,4.60
2022-09-13T08:27:10.102Z,5.27
2022-09-13T08:29:40.231Z,3.37
2022-09-13T08:32:09.309Z,3.80
2022-09-13T08:34:37.882Z,4.10
2022-09-13T08:37:06.283Z,5.03
2022-09-13T08:39:34.764Z,6.03
2022-09-13T08:42:22.290Z,3.43
2022-09-13T08:44:57.545Z,3.03
2022-09-13T08:47:40.145Z,3.17
2022-09-13T08:50:19.112Z,3.27
2022-09-13T08:53:08.209Z,2.97
2022-09-13T08:55:55.907Z,4.90
2022-09-13T08:58:55.692Z,3.43
2022-09-13T09:01:46.995Z,3.93
2022-09-13T09:04:35.410Z,2.77
2022-09-13T09:07:11.606Z,3.00
2022-09-13T09:09:47.748Z,3.77
2022-09-13T09:12:28.980Z,3.73
2022-09-13T09:15:10.219Z,3.47
2022-09-13T09:17:52.985Z,3.37
2022-09-13T09:20:42.550Z,3.97
2022-09-13T09:23:21.391Z,3.00
2022-09-13T09:25:58.068Z,5.23
2022-09-13T09:28:27.012Z,4.13
2022-09-13T09:31:05.176Z,5.07
2022-09-13T09:33:54.752Z,5.83
2022-09-13T09:36:39.217Z,3.40
2022-09-13T09:39:12.768Z,3.90
2022-09-13T09:41:41.828Z,4.07
2022-09-13T09:44:20.265Z,2.80
2022-09-13T09:46:56.013Z,2.60
2022-09-13T09:49:51.976Z,3.70
2022-09-13T09:52:29.624Z,3.17
2022-09-13T09:55:13.193Z,2.90
2022-09-13T09:57:54.756Z,2.40
2022-09-13T10:00:27.158Z,2.83
2022-09-13T10:02:59.606Z,3.07
2022-09-13T10:05:32.771Z,5.50
2022-09-13T10:08:05.170Z,2.70
2022-09-13T10:10:42.615Z,2.87
2022-09-13T10:13:20.418Z,3.53
2022-09-13T10:15:58.740Z,4.97
2022-09-13T10:18:45.510Z,3.53
2022-09-13T10:21:25.790Z,3.20
2022-09-13T10:24:22.311Z,5.07
2022-09-13T10:26:50.622Z,3.87
2022-09-13T10:29:19.791Z,3.43
2022-09-13T10:31:53.604Z,4.40
2022-09-13T10:34:26.273Z,2.90
2022-09-13T10:37:00.154Z,3.40
2022-09-13T10:39:34.088Z,3.60
2022-09-13T10:42:06.333Z,2.93
2022-09-13T10:44:46.594Z,5.53
2022-09-13T10:47:22.848Z,4.63
2022-09-13T10:49:54.041Z,4.07
2022-09-13T10:52:36.148Z,3.37
2022-09-13T10:55:36.092Z,3.13
2022-09-13T10:58:21.157Z,4.60
2022-09-13T11:01:37.003Z,4.13
2022-09-13T11:04:46.277Z,4.23
2022-09-13T11:07:41.112Z,4.20
2022-09-13T11:10:21.904Z,4.47
2022-09-13T11:13:04.568Z,4.10
2022-09-13T11:15:54.601Z,3.60
2022-09-13T11:18:59.424Z,3.23
2022-09-13T11:21:49.082Z,4.60
2022-09-13T11:24:52.640Z,3.40
2022-09-13T11:27:36.325Z,3.30
2022-09-13T11:30:16.582Z,2.83
2022-09-13T11:33:16.857Z,2.87
2022-09-13T11:36:11.317Z,3.50
2022-09-13T11:38:59.686Z,5.87
2022-09-13T11:41:44.234Z,3.67
2022-09-13T11:44:47.424Z,6.37
2022-09-13T11:47:32.175Z,3.93
2022-09-13T11:50:26.394Z,4.80
2022-09-13T11:53:19.364Z,8.47
2022-09-13T11:55:55.994Z,4.07
2022-09-13T11:58:35.216Z,4.17
2022-09-13T12:01:09.294Z,5.70
2022-09-13T12:03:51.721Z,4.70
2022-09-13T12:06:25.793Z,3.30
2022-09-13T12:09:00.711Z,4.77
2022-09-13T12:11:36.344Z,6.87
2022-09-13T12:14:08.868Z,5.53
2022-09-13T12:16:45.602Z,3.57
2022-09-13T12:19:23.262Z,3.80
2022-09-13T12:21:56.983Z,5.50
2022-09-13T12:24:39.317Z,5.47
2022-09-13T12:27:18.803Z,6.03
2022-09-13T12:29:52.387Z,4.00
2022-09-13T12:32:23.666Z,5.83
2022-09-13T12:35:02.905Z,4.27
2022-09-13T12:38:05.108Z,4.57
2022-09-13T12:41:05.448Z,4.93
2022-09-13T12:44:07.805Z,5.93
2022-09-13T12:47:23.899Z,8.03
2022-09-13T12:53:29.907Z,8.10
2022-09-13T12:56:17.541Z,5.43
2022-09-13T12:59:26.300Z,7.27
2022-09-13T13:01:55.841Z,6.07
2022-09-13T13:04:29.873Z,5.10
2022-09-13T13:07:03.951Z,4.63
2022-09-13T13:09:41.024Z,7.97
2022-09-13T13:12:11.514Z,6.77
2022-09-13T13:14:53.374Z,6.03
2022-09-13T13:17:47.704Z,6.53
2022-09-13T13:21:06.134Z,6.57
2022-09-13T13:23:39.100Z,5.73
2022-09-13T13:26:13.981Z,5.03
2022-09-13T13:29:19.620Z,5.77
2022-09-13T13:32:11.523Z,4.80
2022-09-13T13:34:48.727Z,6.13
2022-09-13T13:37:36.948Z,6.93
2022-09-13T13:40:26.941Z,5.60
2022-09-13T13:43:31.376Z,4.93
2022-09-13T13:46:28.235Z,7.10
2022-09-13T13:48:57.671Z,4.73
2022-09-13T13:51:28.781Z,5.40
2022-09-13T13:54:04.449Z,6.00
2022-09-13T13:56:47.243Z,4.87
2022-09-13T13:59:23.240Z,6.47
2022-09-13T14:01:59.341Z,7.57
2022-09-13T14:05:08.463Z,5.47
2022-09-13T14:08:12.615Z,7.47
2022-09-13T14:10:54.763Z,7.87
2022-09-13T14:13:46.073Z,5.53
2022-09-13T14:16:33.141Z,6.07
2022-09-13T14:19:24.156Z,6.37
2022-09-13T14:22:16.322Z,4.80
2022-09-13T14:24:48.643Z,6.63
2022-09-13T14:27:22.421Z,3.80
2022-09-13T14:29:55.181Z,4.27
2022-09-13T14:32:35.043Z,4.30
2022-09-13T14:35:27.279Z,7.37
2022-09-13T14:37:56.919Z,5.50
2022-09-13T14:40:28.519Z,3.87
2022-09-13T14:42:57.471Z,4.90
2022-09-13T14:45:32.180Z,4.70
2022-09-13T14:48:08.144Z,3.60
2022-09-13T14:50:43.704Z,5.17
2022-09-13T14:53:18.551Z,5.63
2022-09-13T14:55:53.357Z,3.77
2022-09-13T14:58:26.633Z,4.83
2022-09-13T15:01:01.087Z,3.97
2022-09-13T15:03:30.461Z,5.33
2022-09-13T15:06:03.782Z,4.13
2022-09-13T15:08:47.616Z,10.23
2022-09-13T15:11:29.145Z,3.87
2022-09-13T15:14:27.807Z,5.30
2022-09-13T15:17:01.730Z,4.43
2022-09-13T15:19:38.974Z,5.67
2022-09-13T15:22:19.011Z,5.37
2022-09-13T15:24:51.551Z,4.20
2022-09-13T15:27:27.456Z,4.20
2022-09-13T15:30:00.043Z,6.43
2022-09-13T15:32:40.556Z,5.60
2022-09-13T15:35:23.388Z,6.00
2022-09-13T15:38:03.491Z,4.47
2022-09-13T15:40:43.747Z,4.67
2022-09-13T15:43:12.543Z,4.20
2022-09-13T15:45:41.052Z,4.10
2022-09-13T15:48:21.903Z,6.97
2022-09-13T15:51:10.513Z,6.67
2022-09-13T15:53:44.713Z,5.00
2022-09-13T15:56:17.802Z,4.10
2022-09-13T15:58:46.081Z,5.07
2022-09-13T16:01:16.352Z,3.10
2022-09-13T16:03:46.040Z,3.10
2022-09-13T16:06:14.435Z,4.27
2022-09-13T16:08:44.541Z,4.43
2022-09-13T16:11:12.846Z,4.93
2022-09-13T16:13:41.136Z,3.43
2022-09-13T16:16:14.921Z,3.77
2022-09-13T16:18:43.317Z,3.90
2022-09-13T16:21:12.017Z,3.70
2022-09-13T16:23:40.807Z,5.30
2022-09-13T16:26:12.005Z,4.03
2022-09-13T16:28:40.615Z,3.50
2022-09-13T16:31:09.772Z,3.10
2022-09-13T16:33:38.395Z,3.87
2022-09-13T16:36:07.948Z,5.37
2022-09-13T16:38:36.513Z,4.03
2022-09-13T16:41:06.361Z,5.57
2022-09-13T16:43:36.810Z,4.77
2022-09-13T16:46:09.054Z,4.17
2022-09-13T16:48:38.238Z,4.43
2022-09-13T16:51:10.363Z,5.33
2022-09-13T16:53:42.117Z,6.13
2022-09-13T16:56:15.237Z,4.70
2022-09-13T16:58:47.563Z,7.63
2022-09-13T17:01:19.873Z,6.10
2022-09-13T17:03:53.949Z,7.70
2022-09-13T17:06:25.957Z,6.10
2022-09-13T17:08:57.646Z,7.27
2022-09-13T17:11:29.764Z,7.00
2022-09-13T17:14:01.568Z,6.93
2022-09-13T17:16:34.196Z,6.47
2022-09-13T17:19:07.343Z,6.87
2022-09-13T17:21:36.126Z,8.00
2022-09-13T17:24:10.116Z,8.83
2022-09-13T17:26:43.808Z,9.67
2022-09-13T17:29:15.295Z,8.87
2022-09-13T17:31:44.727Z,11.43
2022-09-13T17:34:13.939Z,9.40
2022-09-13T17:36:46.314Z,11.43
2022-09-13T17:39:16.417Z,10.17
2022-09-13T17:41:44.726Z,9.20
2022-09-13T17:44:16.166Z,9.93
2022-09-13T17:46:45.180Z,9.13
2022-09-13T17:49:13.795Z,10.77
2022-09-13T17:51:42.043Z,9.30
2022-09-13T17:54:12.105Z,11.33
2022-09-13T17:56:43.273Z,9.60
2022-09-13T17:59:15.577Z,10.57
2022-09-13T18:01:47.715Z,11.30
2022-09-13T18:04:18.699Z,9.17
2022-09-13T18:06:47.759Z,11.23
2022-09-13T18:09:16.585Z,11.43
2022-09-13T18:11:46.072Z,12.10
2022-09-13T18:14:18.201Z,10.00
2022-09-13T18:16:49.237Z,10.10
2022-09-13T18:19:17.715Z,10.50
2022-09-13T18:21:49.632Z,10.80
2022-09-13T18:24:18.381Z,10.47
2022-09-13T18:26:47.011Z,10.47
2022-09-13T18:29:18.671Z,9.70
2022-09-13T18:31:47.442Z,9.77
2022-09-13T18:34:15.945Z,10.10
2022-09-13T18:36:44.726Z,9.23
2022-09-13T18:39:18.196Z,8.13
2022-09-13T18:41:48.355Z,10.00
2022-09-13T18:44:19.228Z,9.50
2022-09-13T18:46:47.973Z,10.30
2022-09-13T18:49:16.220Z,7.73
2022-09-13T18:51:45.903Z,8.50
2022-09-13T18:54:17.673Z,10.63
2022-09-13T18:56:47.214Z,9.60
2022-09-13T18:59:17.095Z,11.40
2022-09-13T19:01:46.484Z,10.63
2022-09-13T19:04:18.319Z,11.80
2022-09-13T19:06:50.032Z,11.07
2022-09-13T19:09:20.779Z,10.67
2022-09-13T19:11:51.684Z,10.33
2022-09-13T19:14:24.974Z,11.30
2022-09-13T19:16:55.740Z,11.07
2022-09-13T19:19:25.311Z,12.50
2022-09-13T19:21:53.791Z,10.80
2022-09-13T19:24:22.304Z,12.83
2022-09-13T19:26:53.131Z,14.87
2022-09-13T19:29:24.254Z,12.20
2022-09-13T19:31:55.700Z,11.67
2022-09-13T19:34:25.024Z,10.43
2022-09-13T19:36:57.607Z,11.50
2022-09-13T19:39:29.596Z,11.97
2022-09-13T19:42:00.700Z,11.63
2022-09-13T19:44:30.850Z,8.67
2022-09-13T19:49:50.510Z,8.33
2022-09-13T19:52:20.787Z,7.50
2022-09-13T19:54:50.285Z,7.83
2022-09-13T19:57:19.033Z,8.40
2022-09-13T19:59:49.168Z,8.97
2022-09-13T20:02:17.581Z,6.67
2022-09-13T20:04:48.721Z,9.87
2022-09-13T20:07:17.343Z,5.73
2022-09-13T20:09:46.975Z,6.63
2022-09-13T20:12:15.586Z,8.10
2022-09-13T20:14:44.479Z,6.10
2022-09-13T20:17:14.035Z,6.53
2022-09-13T20:19:49.138Z,5.60
2022-09-13T20:22:18.776Z,7.80
2022-09-13T20:24:47.050Z,10.10
2022-09-13T20:27:15.613Z,7.07
2022-09-13T20:29:43.858Z,5.57
2022-09-13T20:32:12.135Z,8.27
2022-09-13T20:34:42.240Z,5.03
2022-09-13T20:37:10.466Z,5.83
2022-09-13T20:39:39.209Z,6.53
2022-09-13T20:42:08.704Z,7.93
2022-09-13T20:44:37.005Z,6.80
2022-09-13T20:47:05.842Z,5.10
2022-09-13T20:49:34.190Z,5.60
2022-09-13T20:52:04.494Z,5.23
2022-09-13T20:54:32.717Z,4.57
2022-09-13T20:57:01.008Z,6.47
2022-09-13T20:59:29.395Z,5.33
2022-09-13T21:01:57.995Z,4.67
2022-09-13T21:04:26.322Z,6.57
2022-09-13T21:07:14.738Z,7.47
2022-09-13T21:09:45.137Z,5.87
2022-09-13T21:12:14.338Z,5.53
2022-09-13T21:14:42.712Z,5.60
2022-09-13T21:17:10.983Z,5.30
2022-09-13T21:19:39.616Z,6.23
2022-09-13T21:22:08.159Z,5.77
2022-09-13T21:24:37.097Z,4.47
2022-09-13T21:27:07.626Z,4.40
2022-09-13T21:29:36.561Z,4.43
2022-09-13T21:32:04.893Z,5.37
2022-09-13T21:34:33.634Z,4.27
2022-09-13T21:37:02.400Z,5.33
2022-09-13T21:39:31.365Z,6.03
2022-09-13T21:41:59.572Z,5.20
2022-09-13T21:44:30.544Z,4.80
2022-09-13T21:46:59.087Z,4.33
2022-09-13T21:49:27.585Z,3.73
2022-09-13T21:51:56.649Z,3.90
2022-09-13T21:54:24.844Z,3.03
2022-09-13T21:56:55.481Z,3.30
2022-09-13T21:59:24.810Z,3.33
2022-09-13T22:01:55.056Z,3.83
2022-09-13T22:04:27.366Z,3.57
2022-09-13T22:06:57.093Z,4.07
2022-09-13T22:09:27.766Z,3.20
2022-09-13T22:11:57.443Z,3.77
2022-09-13T22:14:26.528Z,4.40
2022-09-13T22:16:56.185Z,6.97
2022-09-13T22:19:27.352Z,3.63
2022-09-13T22:21:58.953Z,5.43
2022-09-13T22:24:31.724Z,4.87
2022-09-13T22:27:00.249Z,5.60
2022-09-13T22:29:30.006Z,5.70
2022-09-13T22:32:00.490Z,4.17
2022-09-13T22:34:30.786Z,4.77
2022-09-13T22:37:00.001Z,5.97
2022-09-13T22:39:29.172Z,3.33
2022-09-13T22:41:57.433Z,2.93
2022-09-13T22:44:25.663Z,3.43
2022-09-13T22:46:54.627Z,5.07
2022-09-13T22:49:24.251Z,6.83
2022-09-13T22:51:52.625Z,6.07
2022-09-13T22:54:21.210Z,6.23
2022-09-13T22:56:49.664Z,4.13
2022-09-13T22:59:22.177Z,6.17
2022-09-13T23:01:50.708Z,4.00
2022-09-13T23:04:20.039Z,7.47
2022-09-13T23:06:49.962Z,6.13
2022-09-13T23:09:19.731Z,3.47
2022-09-13T23:11:48.497Z,7.30
2022-09-13T23:14:19.808Z,5.93
2022-09-13T23:16:52.003Z,4.00
2022-09-13T23:19:23.290Z,7.23
2022-09-13T23:21:54.494Z,3.03
2022-09-13T23:24:24.144Z,5.23
2022-09-13T23:26:56.712Z,4.50
2022-09-13T23:29:25.380Z,7.80
2022-09-13T23:31:53.915Z,4.60
2022-09-13T23:34:23.443Z,5.90
2022-09-13T23:36:53.607Z,6.03
2022-09-13T23:39:22.168Z,4.70
2022-09-13T23:41:52.048Z,6.73
2022-09-13T23:44:20.536Z,3.60
2022-09-13T23:46:49.752Z,4.33
2022-09-13T23:49:18.666Z,3.83
2022-09-13T23:51:47.456Z,6.87
2022-09-13T23:54:17.381Z,6.40
2022-09-13T23:56:45.707Z,4.80
2022-09-13T23:59:14.255Z,4.90
